createdAt,value
2018-11-10T00:00:08.715Z,7.86
2018-11-10T00:02:37.148Z,7.87
2018-11-10T00:05:05.811Z,7.90
2018-11-10T00:07:34.320Z,7.75
2018-11-10T00:10:02.816Z,7.80
2018-11-10T00:12:31.159Z,7.82
2018-11-10T00:14:59.327Z,7.76
2018-11-10T00:17:27.808Z,7.85
2018-11-10T00:19:56.099Z,7.69
2018-11-10T00:22:24.427Z,7.69
2018-11-10T00:24:52.391Z,7.70
2018-11-10T00:27:20.307Z,7.76
2018-11-10T00:29:48.799Z,7.80
2018-11-10T00:32:17.050Z,7.75
2018-11-10T00:34:45.651Z,7.75
2018-11-10T00:37:13.791Z,7.74
2018-11-10T00:39:41.759Z,7.74
2018-11-10T00:42:10.211Z,7.74
2018-11-10T00:44:38.467Z,7.71
2018-11-10T00:47:06.967Z,7.67
2018-11-10T00:49:35.170Z,7.63
2018-11-10T00:52:03.339Z,7.58
2018-11-10T00:54:31.519Z,7.59
2018-11-10T00:56:59.432Z,7.61
2018-11-10T00:59:27.735Z,7.42
2018-11-10T01:01:55.851Z,7.45
2018-11-10T01:04:24.078Z,7.35
2018-11-10T01:06:52.366Z,7.32
2018-11-10T01:09:20.428Z,7.30
2018-11-10T01:11:48.827Z,7.31
2018-11-10T01:14:17.155Z,7.32
2018-11-10T01:16:45.583Z,7.30
2018-11-10T01:19:13.699Z,7.16
2018-11-10T01:21:41.827Z,7.09
2018-11-10T01:24:10.036Z,7.14
2018-11-10T01:26:38.303Z,7.09
2018-11-10T01:29:07.292Z,7.11
2018-11-10T01:31:35.682Z,7.27
2018-11-10T01:34:04.163Z,7.22
2018-11-10T01:36:32.247Z,7.32
2018-11-10T01:39:02.028Z,7.32
2018-11-10T01:41:30.495Z,7.31
2018-11-10T01:43:58.575Z,7.22
2018-11-10T01:46:26.939Z,7.24
2018-11-10T01:48:55.002Z,7.24
2018-11-10T01:51:23.132Z,7.32
2018-11-10T01:53:51.435Z,7.32
2018-11-10T01:56:19.499Z,7.35
2018-11-10T01:58:48.150Z,7.40
2018-11-10T02:01:16.338Z,7.39
2018-11-10T02:03:44.499Z,7.44
2018-11-10T02:06:12.799Z,7.41
2018-11-10T02:08:41.283Z,7.37
2018-11-10T02:11:09.529Z,7.33
2018-11-10T02:13:37.799Z,7.24
2018-11-10T02:16:06.055Z,7.19
2018-11-10T02:18:34.024Z,7.11
2018-11-10T02:21:02.450Z,7.03
2018-11-10T02:23:30.651Z,6.94
2018-11-10T02:25:58.880Z,6.93
2018-11-10T02:28:26.867Z,6.87
2018-11-10T02:30:55.159Z,6.90
2018-11-10T02:33:23.396Z,6.93
2018-11-10T02:35:51.894Z,6.89
2018-11-10T02:38:19.955Z,6.87
2018-11-10T02:40:47.684Z,6.86
2018-11-10T02:43:15.911Z,6.78
2018-11-10T02:45:44.200Z,6.74
2018-11-10T02:48:12.304Z,6.68
2018-11-10T02:50:40.559Z,6.61
2018-11-10T02:53:08.794Z,6.61
2018-11-10T02:55:37.272Z,6.68
2018-11-10T02:58:05.428Z,6.67
2018-11-10T03:00:33.406Z,6.74
2018-11-10T03:03:01.923Z,6.81
2018-11-10T03:05:29.992Z,6.75
2018-11-10T03:07:58.227Z,6.81
2018-11-10T03:10:26.518Z,6.75
2018-11-10T03:12:55.278Z,6.73
2018-11-10T03:15:23.642Z,6.68
2018-11-10T03:17:51.781Z,6.74
2018-11-10T03:20:20.255Z,6.73
2018-11-10T03:22:48.470Z,6.71
2018-11-10T03:25:16.600Z,6.70
2018-11-10T03:27:44.896Z,6.80
2018-11-10T03:30:13.156Z,6.79
2018-11-10T03:32:41.408Z,6.84
2018-11-10T03:35:10.143Z,6.76
2018-11-10T03:37:38.525Z,6.78
2018-11-10T03:40:07.731Z,6.79
2018-11-10T03:42:36.069Z,6.75
2018-11-10T03:45:04.044Z,6.71
2018-11-10T03:47:32.311Z,6.74
2018-11-10T03:50:00.835Z,6.60
2018-11-10T03:52:29.015Z,6.50
2018-11-10T03:54:56.911Z,6.53
2018-11-10T03:57:25.183Z,6.51
2018-11-10T03:59:53.454Z,6.48
2018-11-10T04:02:21.967Z,6.52
2018-11-10T04:04:50.249Z,6.50
2018-11-10T04:07:18.722Z,6.49
2018-11-10T04:09:46.954Z,6.48
2018-11-10T04:12:15.479Z,6.51
2018-11-10T04:14:43.763Z,6.34
2018-11-10T04:17:12.010Z,6.33
2018-11-10T04:19:40.336Z,6.37
2018-11-10T04:22:08.368Z,6.36
2018-11-10T04:24:36.876Z,6.31
2018-11-10T04:27:05.194Z,6.33
2018-11-10T04:29:33.412Z,6.33
2018-11-10T04:32:01.646Z,6.33
2018-11-10T04:34:29.772Z,6.26
2018-11-10T04:36:58.234Z,6.31
2018-11-10T04:39:26.471Z,6.20
2018-11-10T04:41:54.999Z,6.27
2018-11-10T04:44:23.211Z,6.27
2018-11-10T04:46:51.523Z,6.10
2018-11-10T04:49:19.820Z,6.11
2018-11-10T04:51:48.276Z,6.20
2018-11-10T04:54:16.516Z,6.12
2018-11-10T04:56:44.621Z,6.16
2018-11-10T04:59:12.863Z,6.28
2018-11-10T05:01:40.962Z,6.26
2018-11-10T05:04:09.455Z,6.26
2018-11-10T05:06:37.832Z,6.29
2018-11-10T05:09:06.994Z,6.29
2018-11-10T05:11:35.284Z,6.33
2018-11-10T05:14:03.146Z,6.32
2018-11-10T05:16:30.993Z,6.32
2018-11-10T05:18:59.210Z,6.40
2018-11-10T05:21:27.616Z,6.45
2018-11-10T05:23:55.938Z,6.34
2018-11-10T05:26:24.257Z,6.45
2018-11-10T05:28:52.583Z,6.61
2018-11-10T05:31:20.764Z,6.97
2018-11-10T05:33:49.003Z,7.42
2018-11-10T05:36:17.245Z,7.86
2018-11-10T05:38:45.291Z,8.16
2018-11-10T05:41:13.419Z,8.48
2018-11-10T05:43:41.679Z,8.77
2018-11-10T05:46:09.965Z,9.05
2018-11-10T05:48:38.406Z,9.21
2018-11-10T05:51:06.506Z,9.58
2018-11-10T05:53:34.864Z,9.92
2018-11-10T05:56:03.297Z,10.39
2018-11-10T05:58:31.536Z,10.67
2018-11-10T06:00:59.792Z,10.42
2018-11-10T06:03:27.903Z,10.81
2018-11-10T06:05:56.102Z,11.34
2018-11-10T06:11:01.979Z,11.67
2018-11-10T06:13:30.567Z,11.91
2018-11-10T06:15:58.701Z,11.85
2018-11-10T06:18:27.012Z,12.07
2018-11-10T06:20:55.183Z,12.12
2018-11-10T06:23:23.530Z,12.43
2018-11-10T06:25:51.810Z,13.18
2018-11-10T06:28:20.254Z,13.00
2018-11-10T06:30:48.545Z,13.03
2018-11-10T06:33:16.995Z,12.76
2018-11-10T06:35:45.288Z,12.67
2018-11-10T06:38:13.764Z,12.65
2018-11-10T06:40:42.087Z,12.26
2018-11-10T06:43:10.555Z,12.31
2018-11-10T06:45:38.775Z,12.39
2018-11-10T06:48:06.743Z,12.39
2018-11-10T06:50:34.953Z,12.43
2018-11-10T06:53:03.567Z,12.98
2018-11-10T06:55:31.695Z,12.93
2018-11-10T06:58:00.175Z,12.61
2018-11-10T07:00:28.635Z,13.07
2018-11-10T07:02:56.952Z,12.87
2018-11-10T07:05:25.375Z,12.91
2018-11-10T07:07:53.662Z,12.96
2018-11-10T07:10:21.719Z,13.12
2018-11-10T07:12:50.076Z,13.17
2018-11-10T07:15:18.266Z,13.20
2018-11-10T07:17:46.582Z,13.63
2018-11-10T07:20:14.879Z,13.61
2018-11-10T07:22:43.127Z,13.47
2018-11-10T07:25:11.303Z,13.65
2018-11-10T07:27:39.469Z,13.91
2018-11-10T07:30:09.909Z,13.83
2018-11-10T07:32:38.141Z,14.09
2018-11-10T07:35:06.776Z,14.09
2018-11-10T07:37:35.049Z,14.28
2018-11-10T07:40:03.303Z,13.72
2018-11-10T07:42:31.819Z,13.66
2018-11-10T07:45:00.276Z,13.79
2018-11-10T07:47:28.575Z,13.99
2018-11-10T07:49:57.026Z,14.32
2018-11-10T07:52:25.380Z,14.30
2018-11-10T07:54:54.231Z,14.75
2018-11-10T07:57:22.478Z,14.45
2018-11-10T07:59:50.763Z,13.94
2018-11-10T08:02:19.088Z,13.92
2018-11-10T08:04:47.512Z,14.35
2018-11-10T08:07:15.788Z,14.38
2018-11-10T08:09:44.116Z,13.74
2018-11-10T08:12:12.324Z,13.91
2018-11-10T08:14:40.623Z,13.49
2018-11-10T08:17:08.915Z,14.03
2018-11-10T08:19:37.176Z,13.89
2018-11-10T08:22:05.670Z,13.81
2018-11-10T08:24:33.972Z,14.01
2018-11-10T08:27:02.331Z,14.22
2018-11-10T08:29:30.719Z,14.49
2018-11-10T08:31:58.978Z,14.43
2018-11-10T08:34:27.220Z,14.79
2018-11-10T08:36:55.542Z,14.83
2018-11-10T08:39:24.099Z,15.28
2018-11-10T08:41:52.243Z,16.01
2018-11-10T08:44:20.543Z,16.55
2018-11-10T08:46:48.842Z,16.35
2018-11-10T08:49:17.421Z,15.96
2018-11-10T08:51:45.576Z,16.09
2018-11-10T08:54:14.119Z,15.97
2018-11-10T08:56:42.307Z,15.87
2018-11-10T08:59:10.600Z,16.03
2018-11-10T09:01:38.870Z,16.76
2018-11-10T09:04:07.359Z,17.07
2018-11-10T09:06:35.671Z,16.83
2018-11-10T09:09:05.538Z,17.15
2018-11-10T09:11:33.631Z,17.79
2018-11-10T09:14:01.842Z,17.29
2018-11-10T09:16:29.575Z,17.37
2018-11-10T09:18:57.664Z,17.28
2018-11-10T09:21:26.296Z,17.03
2018-11-10T09:23:54.414Z,17.20
2018-11-10T09:26:22.899Z,17.46
2018-11-10T09:28:51.167Z,17.42
2018-11-10T09:31:19.419Z,17.65
2018-11-10T09:33:47.863Z,17.32
2018-11-10T09:36:16.138Z,17.11
2018-11-10T09:38:44.490Z,17.70
2018-11-10T09:41:12.699Z,17.66
2018-11-10T09:43:40.822Z,18.17
2018-11-10T09:46:08.647Z,17.82
2018-11-10T09:48:36.919Z,18.59
2018-11-10T09:51:05.204Z,19.15
2018-11-10T09:53:33.274Z,19.46
2018-11-10T09:56:01.766Z,19.66
2018-11-10T09:58:30.027Z,19.12
2018-11-10T10:00:58.643Z,18.64
2018-11-10T10:03:26.832Z,18.31
2018-11-10T10:05:54.523Z,18.56
2018-11-10T10:08:22.969Z,18.45
2018-11-10T10:10:51.198Z,18.45
2018-11-10T10:13:19.327Z,18.31
2018-11-10T10:15:47.622Z,19.07
2018-11-10T10:18:15.794Z,18.45
2018-11-10T10:20:44.094Z,19.34
2018-11-10T10:23:12.247Z,18.92
2018-11-10T10:25:40.243Z,18.06
2018-11-10T10:28:08.555Z,18.71
2018-11-10T10:30:36.883Z,18.95
2018-11-10T10:33:05.352Z,19.72
2018-11-10T10:35:33.759Z,19.79
2018-11-10T10:38:01.580Z,19.95
2018-11-10T10:40:29.301Z,20.57
2018-11-10T10:42:57.136Z,20.29
2018-11-10T10:45:24.871Z,20.51
2018-11-10T10:47:52.594Z,19.85
2018-11-10T10:50:21.580Z,19.81
2018-11-10T10:52:49.330Z,19.56
2018-11-10T10:55:18.022Z,19.14
2018-11-10T10:57:46.687Z,19.20
2018-11-10T11:00:19.972Z,19.38
2018-11-10T11:02:53.197Z,20.03
2018-11-10T11:05:26.452Z,20.66
2018-11-10T11:07:54.572Z,19.53
2018-11-10T11:10:22.534Z,18.48
2018-11-10T11:12:51.063Z,18.64
2018-11-10T11:15:19.089Z,19.13
2018-11-10T11:17:47.527Z,19.89
2018-11-10T11:20:15.939Z,18.81
2018-11-10T11:22:43.950Z,18.81
2018-11-10T11:25:12.519Z,19.05
2018-11-10T11:27:41.095Z,20.05
2018-11-10T11:30:09.412Z,19.63
2018-11-10T11:32:37.995Z,20.17
2018-11-10T11:35:07.883Z,19.55
2018-11-10T11:37:36.303Z,20.37
2018-11-10T11:40:05.173Z,20.50
2018-11-10T11:42:33.626Z,20.16
2018-11-10T11:45:01.916Z,19.70
2018-11-10T11:47:30.363Z,19.15
2018-11-10T11:49:58.791Z,19.78
2018-11-10T11:52:27.109Z,20.02
2018-11-10T11:54:55.435Z,20.23
2018-11-10T11:57:23.958Z,20.85
2018-11-10T11:59:51.967Z,21.21
2018-11-10T12:02:19.759Z,19.68
2018-11-10T12:04:47.515Z,19.27
2018-11-10T12:07:15.288Z,19.54
2018-11-10T12:09:43.655Z,19.19
2018-11-10T12:12:11.959Z,19.70
2018-11-10T12:14:40.372Z,19.53
2018-11-10T12:17:08.663Z,19.31
2018-11-10T12:19:37.145Z,20.35
2018-11-10T12:22:05.371Z,21.13
2018-11-10T12:24:33.711Z,20.71
2018-11-10T12:27:01.956Z,21.48
2018-11-10T12:29:30.219Z,21.71
2018-11-10T12:31:58.512Z,21.47
2018-11-10T12:34:26.836Z,21.83
2018-11-10T12:36:55.039Z,21.61
2018-11-10T12:39:23.579Z,21.49
2018-11-10T12:41:51.634Z,20.57
2018-11-10T12:44:20.080Z,21.15
2018-11-10T12:46:48.333Z,20.20
2018-11-10T12:49:16.586Z,20.36
2018-11-10T12:51:44.951Z,20.34
2018-11-10T12:54:13.024Z,20.88
2018-11-10T12:56:41.668Z,21.07
2018-11-10T12:59:09.779Z,20.33
2018-11-10T13:01:38.267Z,20.89
2018-11-10T13:04:06.690Z,21.10
2018-11-10T13:06:34.968Z,20.33
2018-11-10T13:09:04.584Z,20.19
2018-11-10T13:11:32.798Z,20.15
2018-11-10T13:14:01.031Z,20.13
2018-11-10T13:16:29.347Z,20.21
2018-11-10T13:18:57.399Z,19.61
2018-11-10T13:21:25.831Z,19.58
2018-11-10T13:23:53.726Z,19.59
2018-11-10T13:26:22.240Z,20.11
2018-11-10T13:28:50.507Z,20.64
2018-11-10T13:31:19.112Z,20.24
2018-11-10T13:33:47.312Z,20.12
2018-11-10T13:36:15.520Z,20.12
2018-11-10T13:38:43.843Z,20.00
2018-11-10T13:41:11.919Z,19.96
2018-11-10T13:43:40.390Z,20.27
2018-11-10T13:46:08.598Z,20.28
2018-11-10T13:48:36.720Z,19.35
2018-11-10T13:51:05.478Z,19.35
2018-11-10T13:53:33.685Z,19.20
2018-11-10T13:56:01.972Z,19.00
2018-11-10T13:58:30.450Z,18.93
2018-11-10T14:00:58.683Z,18.52
2018-11-10T14:03:27.218Z,18.79
2018-11-10T14:05:55.455Z,18.87
2018-11-10T14:08:23.936Z,18.93
2018-11-10T14:10:52.245Z,18.96
2018-11-10T14:13:20.652Z,18.88
2018-11-10T14:15:48.927Z,18.65
2018-11-10T14:18:17.271Z,18.42
2018-11-10T14:20:45.523Z,18.17
2018-11-10T14:23:13.425Z,18.07
2018-11-10T14:25:41.915Z,17.95
2018-11-10T14:28:10.115Z,18.00
2018-11-10T14:30:38.488Z,17.83
2018-11-10T14:33:07.081Z,17.77
2018-11-10T14:35:35.363Z,17.68
2018-11-10T14:38:03.680Z,17.54
2018-11-10T14:40:32.157Z,17.23
2018-11-10T14:43:00.432Z,17.05
2018-11-10T14:45:28.852Z,16.96
2018-11-10T14:47:57.008Z,16.80
2018-11-10T14:50:25.428Z,16.63
2018-11-10T14:52:53.808Z,16.52
2018-11-10T14:55:22.012Z,16.25
2018-11-10T14:57:50.499Z,16.06
2018-11-10T15:00:20.963Z,15.85
2018-11-10T15:02:49.300Z,15.72
2018-11-10T15:05:17.771Z,15.62
2018-11-10T15:07:46.014Z,15.52
2018-11-10T15:10:15.823Z,15.36
2018-11-10T15:12:44.471Z,15.29
2018-11-10T15:15:13.834Z,15.18
2018-11-10T15:17:42.287Z,15.01
2018-11-10T15:20:11.809Z,14.92
2018-11-10T15:22:40.236Z,14.75
2018-11-10T15:25:10.665Z,14.65
2018-11-10T15:27:39.311Z,14.40
2018-11-10T15:30:11.068Z,14.33
2018-11-10T15:32:39.516Z,14.22
2018-11-10T15:35:08.780Z,14.10
2018-11-10T15:37:37.044Z,13.79
2018-11-10T15:40:06.399Z,13.64
2018-11-10T15:42:34.887Z,13.28
2018-11-10T15:45:03.112Z,13.33
2018-11-10T15:47:31.715Z,13.42
2018-11-10T15:49:59.801Z,13.46
2018-11-10T15:52:28.200Z,13.41
2018-11-10T15:54:56.383Z,13.42
2018-11-10T15:57:24.678Z,13.40
2018-11-10T15:59:52.910Z,13.23
2018-11-10T16:02:21.406Z,13.18
2018-11-10T16:04:49.691Z,13.18
2018-11-10T16:07:18.211Z,13.21
2018-11-10T16:09:46.402Z,12.97
2018-11-10T16:12:14.488Z,12.84
2018-11-10T16:14:42.672Z,12.73
2018-11-10T16:17:10.905Z,12.75
2018-11-10T16:19:39.154Z,12.75
2018-11-10T16:22:07.455Z,12.71
2018-11-10T16:24:35.692Z,12.77
2018-11-10T16:27:03.943Z,12.76
2018-11-10T16:29:32.080Z,12.70
2018-11-10T16:32:00.615Z,12.65
2018-11-10T16:34:28.741Z,12.63
2018-11-10T16:36:56.801Z,12.68
2018-11-10T16:39:25.519Z,12.60
2018-11-10T16:41:54.073Z,12.67
2018-11-10T16:44:22.136Z,12.47
2018-11-10T16:46:50.607Z,12.46
2018-11-10T16:49:18.912Z,12.50
2018-11-10T16:51:46.956Z,12.35
2018-11-10T16:54:15.402Z,12.24
2018-11-10T16:56:43.706Z,12.20
2018-11-10T16:59:12.283Z,12.21
2018-11-10T17:01:40.427Z,12.20
2018-11-10T17:04:08.928Z,11.98
2018-11-10T17:06:37.219Z,11.93
2018-11-10T17:09:07.831Z,12.18
2018-11-10T17:11:36.030Z,12.29
2018-11-10T17:14:04.652Z,12.27
2018-11-10T17:16:32.764Z,12.19
2018-11-10T17:19:01.064Z,12.16
2018-11-10T17:21:29.425Z,11.89
2018-11-10T17:23:57.859Z,11.87
2018-11-10T17:26:26.053Z,11.89
2018-11-10T17:28:54.860Z,11.92
2018-11-10T17:31:23.019Z,11.87
2018-11-10T17:33:51.333Z,11.82
2018-11-10T17:36:20.448Z,11.73
2018-11-10T17:38:49.751Z,11.69
2018-11-10T17:41:17.765Z,11.60
2018-11-10T17:43:46.757Z,11.51
2018-11-10T17:46:15.545Z,11.54
2018-11-10T17:48:44.729Z,11.42
2018-11-10T17:51:13.013Z,11.43
2018-11-10T17:53:41.518Z,11.52
2018-11-10T17:56:09.955Z,11.58
2018-11-10T17:58:38.448Z,11.65
2018-11-10T18:01:06.840Z,11.69
2018-11-10T18:03:35.540Z,11.69
2018-11-10T18:06:03.872Z,11.60
2018-11-10T18:08:32.592Z,11.61
2018-11-10T18:11:00.861Z,11.47
2018-11-10T18:13:29.691Z,11.76
2018-11-10T18:15:58.358Z,11.86
2018-11-10T18:18:26.608Z,11.76
2018-11-10T18:20:55.226Z,11.76
2018-11-10T18:23:23.557Z,11.76
2018-11-10T18:25:51.628Z,11.74
2018-11-10T18:28:20.400Z,11.75
2018-11-10T18:30:48.804Z,11.92
2018-11-10T18:33:17.079Z,12.04
2018-11-10T18:35:45.596Z,12.07
2018-11-10T18:38:13.864Z,12.17
2018-11-10T18:40:41.808Z,12.26
2018-11-10T18:43:09.887Z,12.18
2018-11-10T18:45:38.439Z,11.93
2018-11-10T18:48:07.795Z,11.71
2018-11-10T18:50:36.489Z,11.67
2018-11-10T18:53:04.965Z,11.56
2018-11-10T18:55:34.283Z,11.54
2018-11-10T18:58:03.400Z,11.48
2018-11-10T19:00:33.051Z,11.42
2018-11-10T19:03:02.356Z,11.37
2018-11-10T19:05:31.938Z,11.30
2018-11-10T19:08:00.747Z,11.22
2018-11-10T19:10:29.641Z,11.17
2018-11-10T19:12:58.777Z,11.11
2018-11-10T19:15:27.979Z,11.09
2018-11-10T19:17:57.032Z,11.05
2018-11-10T19:20:25.556Z,10.87
2018-11-10T19:22:54.863Z,10.79
2018-11-10T19:25:24.434Z,10.90
2018-11-10T19:27:52.867Z,10.91
2018-11-10T19:30:22.232Z,10.87
2018-11-10T19:32:51.511Z,10.83
2018-11-10T19:35:19.959Z,10.78
2018-11-10T19:37:48.475Z,10.70
2018-11-10T19:40:17.793Z,10.61
2018-11-10T19:42:47.355Z,10.57
2018-11-10T19:45:16.267Z,10.59
2018-11-10T19:47:46.063Z,10.66
2018-11-10T19:50:14.488Z,10.60
2018-11-10T19:52:43.176Z,10.55
2018-11-10T19:55:13.941Z,10.51
2018-11-10T19:57:42.663Z,10.57
2018-11-10T20:00:19.999Z,10.67
2018-11-10T20:02:48.463Z,10.67
2018-11-10T20:05:17.617Z,10.57
2018-11-10T20:07:46.460Z,10.49
2018-11-10T20:10:15.280Z,10.49
2018-11-10T20:12:43.907Z,10.37
2018-11-10T20:15:14.435Z,10.34
2018-11-10T20:17:42.915Z,10.37
2018-11-10T20:20:12.516Z,10.26
2018-11-10T20:22:40.973Z,10.31
2018-11-10T20:25:11.204Z,10.22
2018-11-10T20:27:40.584Z,10.18
2018-11-10T20:30:10.520Z,10.30
2018-11-10T20:32:39.191Z,10.21
2018-11-10T20:35:09.423Z,10.26
2018-11-10T20:37:38.064Z,10.28
2018-11-10T20:40:07.296Z,10.28
2018-11-10T20:42:36.018Z,10.35
2018-11-10T20:45:04.635Z,10.31
2018-11-10T20:47:32.909Z,10.25
2018-11-10T20:50:01.036Z,10.07
2018-11-10T20:52:29.960Z,10.07
2018-11-10T20:54:58.373Z,10.11
2018-11-10T20:57:26.655Z,10.12
2018-11-10T20:59:55.117Z,10.19
2018-11-10T21:02:23.406Z,10.42
2018-11-10T21:04:51.951Z,10.39
2018-11-10T21:07:20.118Z,10.34
2018-11-10T21:09:48.503Z,10.35
2018-11-10T21:12:16.814Z,10.27
2018-11-10T21:14:44.979Z,10.25
2018-11-10T21:17:13.572Z,10.26
2018-11-10T21:19:41.764Z,10.12
2018-11-10T21:22:11.370Z,9.98
2018-11-10T21:24:39.848Z,9.89
2018-11-10T21:27:08.036Z,9.82
2018-11-10T21:29:36.604Z,9.73
2018-11-10T21:32:05.481Z,9.63
2018-11-10T21:34:33.647Z,9.55
2018-11-10T21:37:01.991Z,9.58
2018-11-10T21:39:30.419Z,9.66
2018-11-10T21:41:58.796Z,9.64
2018-11-10T21:44:26.970Z,9.54
2018-11-10T21:46:55.164Z,9.56
2018-11-10T21:49:23.822Z,9.52
2018-11-10T21:51:52.332Z,9.46
2018-11-10T21:54:20.780Z,9.42
2018-11-10T21:56:49.203Z,9.39
2018-11-10T21:59:17.471Z,9.40
2018-11-10T22:01:45.934Z,9.42
2018-11-10T22:04:14.543Z,9.41
2018-11-10T22:06:42.487Z,9.34
2018-11-10T22:09:11.651Z,9.18
2018-11-10T22:11:41.203Z,9.14
2018-11-10T22:14:09.327Z,9.10
2018-11-10T22:16:37.624Z,9.14
2018-11-10T22:19:06.151Z,9.05
2018-11-10T22:21:34.402Z,9.17
2018-11-10T22:24:02.962Z,9.15
2018-11-10T22:26:31.142Z,9.00
2018-11-10T22:28:59.466Z,9.01
2018-11-10T22:31:27.694Z,9.01
2018-11-10T22:33:56.211Z,8.94
2018-11-10T22:36:24.425Z,8.95
2018-11-10T22:38:52.895Z,8.93
2018-11-10T22:41:21.047Z,8.91
2018-11-10T22:43:49.371Z,8.80
2018-11-10T22:46:17.543Z,8.95
2018-11-10T22:48:46.794Z,8.80
2018-11-10T22:51:15.107Z,8.81
2018-11-10T22:53:43.191Z,8.93
2018-11-10T22:56:11.531Z,8.90
2018-11-10T22:58:39.741Z,8.90
2018-11-10T23:01:09.321Z,8.87
2018-11-10T23:03:38.764Z,8.76
2018-11-10T23:06:07.979Z,8.80
2018-11-10T23:08:36.154Z,8.70
2018-11-10T23:11:04.633Z,8.66
2018-11-10T23:13:32.980Z,8.72
2018-11-10T23:16:01.370Z,8.70
2018-11-10T23:18:29.664Z,8.63
2018-11-10T23:20:57.919Z,8.69
2018-11-10T23:23:26.193Z,8.70
2018-11-10T23:25:54.527Z,8.83
2018-11-10T23:28:22.743Z,8.83
2018-11-10T23:30:50.503Z,8.77
2018-11-10T23:33:18.689Z,8.65
2018-11-10T23:35:46.958Z,8.63
2018-11-10T23:38:15.190Z,8.73
2018-11-10T23:40:43.335Z,8.79
2018-11-10T23:43:11.573Z,8.65
2018-11-10T23:45:39.830Z,8.72
2018-11-10T23:48:08.130Z,8.72
2018-11-10T23:50:36.416Z,8.61
2018-11-10T23:53:04.678Z,8.60
2018-11-10T23:55:33.024Z,8.57
2018-11-10T23:58:01.235Z,8.55
